createdAt,value
2023-02-09T00:00:13.195Z,23.37
2023-02-09T00:02:41.221Z,26.13
2023-02-09T00:05:09.450Z,26.80
2023-02-09T00:07:36.378Z,23.10
2023-02-09T00:10:04.926Z,24.13
2023-02-09T00:12:50.349Z,26.30
2023-02-09T00:15:17.214Z,24.67
2023-02-09T00:17:43.997Z,24.80
2023-02-09T00:20:11.219Z,25.50
2023-02-09T00:22:38.091Z,24.57
2023-02-09T00:25:05.110Z,23.83
2023-02-09T00:27:35.445Z,26.20
2023-02-09T00:30:02.521Z,25.23
2023-02-09T00:32:31.038Z,25.33
2023-02-09T00:34:57.967Z,24.57
2023-02-09T00:37:24.750Z,24.63
2023-02-09T00:39:51.601Z,26.40
2023-02-09T00:42:18.482Z,23.77
2023-02-09T00:44:46.022Z,29.97
2023-02-09T00:47:12.969Z,25.03
2023-02-09T00:49:40.182Z,24.03
2023-02-09T00:52:09.752Z,23.87
2023-02-09T00:54:37.010Z,24.10
2023-02-09T00:57:05.512Z,25.23
2023-02-09T00:59:34.361Z,23.27
2023-02-09T01:02:01.673Z,22.40
2023-02-09T01:04:28.559Z,23.40
2023-02-09T01:06:55.328Z,22.43
2023-02-09T01:09:22.139Z,23.23
2023-02-09T01:11:49.154Z,21.47
2023-02-09T01:14:16.476Z,25.47
2023-02-09T01:16:43.588Z,24.53
2023-02-09T01:19:13.188Z,23.33
2023-02-09T01:21:40.456Z,25.13
2023-02-09T01:24:07.334Z,22.90
2023-02-09T01:26:34.224Z,24.20
2023-02-09T01:29:01.110Z,22.87
2023-02-09T01:31:42.038Z,21.53
2023-02-09T01:34:12.315Z,23.47
2023-02-09T01:36:39.338Z,22.80
2023-02-09T01:39:06.255Z,24.77
2023-02-09T01:41:34.139Z,25.27
2023-02-09T01:44:26.739Z,26.03
2023-02-09T01:46:53.639Z,27.47
2023-02-09T01:49:26.321Z,24.83
2023-02-09T01:51:55.997Z,25.83
2023-02-09T01:54:48.261Z,24.53
2023-02-09T01:57:20.269Z,24.30
2023-02-09T02:00:00.599Z,24.90
2023-02-09T02:02:27.543Z,21.83
2023-02-09T02:04:54.448Z,22.37
2023-02-09T02:07:41.098Z,23.83
2023-02-09T02:10:08.233Z,24.73
2023-02-09T02:12:36.968Z,23.03
2023-02-09T02:15:03.952Z,22.67
2023-02-09T02:17:45.531Z,22.73
2023-02-09T02:20:36.432Z,22.50
2023-02-09T02:23:12.256Z,22.73
2023-02-09T02:25:54.338Z,25.20
2023-02-09T02:28:49.067Z,24.13
2023-02-09T02:31:34.057Z,23.00
2023-02-09T02:34:19.697Z,23.87
2023-02-09T02:37:09.462Z,23.03
2023-02-09T02:39:44.517Z,26.30
2023-02-09T02:42:41.651Z,25.10
2023-02-09T02:45:14.098Z,24.53
2023-02-09T02:47:47.381Z,27.63
2023-02-09T02:50:18.971Z,25.10
2023-02-09T02:52:48.329Z,25.47
2023-02-09T02:55:19.424Z,24.53
2023-02-09T02:57:51.281Z,22.87
2023-02-09T03:00:32.933Z,24.40
2023-02-09T03:03:05.650Z,25.83
2023-02-09T03:05:33.238Z,26.77
2023-02-09T03:08:00.084Z,24.17
2023-02-09T03:10:34.704Z,23.37
2023-02-09T03:13:04.259Z,23.77
2023-02-09T03:19:36.951Z,24.50
2023-02-09T03:22:17.446Z,24.20
2023-02-09T03:24:55.333Z,24.50
2023-02-09T03:27:31.283Z,25.43
2023-02-09T03:30:01.244Z,24.43
2023-02-09T03:32:28.499Z,24.00
2023-02-09T03:34:56.092Z,25.83
2023-02-09T03:37:23.862Z,24.50
2023-02-09T03:39:50.638Z,24.00
2023-02-09T03:42:17.426Z,23.37
2023-02-09T03:44:44.189Z,22.47
2023-02-09T03:47:10.916Z,24.53
2023-02-09T03:49:39.821Z,23.77
2023-02-09T03:52:09.193Z,22.83
2023-02-09T03:54:36.026Z,23.77
2023-02-09T03:57:03.575Z,23.43
2023-02-09T03:59:30.590Z,23.20
2023-02-09T04:01:58.765Z,23.80
2023-02-09T04:04:26.239Z,22.63
2023-02-09T04:06:53.736Z,25.03
2023-02-09T04:09:20.746Z,24.07
2023-02-09T04:11:47.578Z,23.30
2023-02-09T04:14:14.752Z,23.73
2023-02-09T04:16:41.652Z,23.70
2023-02-09T04:19:09.634Z,22.40
2023-02-09T04:21:37.899Z,22.60
2023-02-09T04:24:05.844Z,22.83
2023-02-09T04:26:32.981Z,22.87
2023-02-09T04:28:59.831Z,23.80
2023-02-09T04:31:26.807Z,22.93
2023-02-09T04:33:53.686Z,25.60
2023-02-09T04:36:23.229Z,24.13
2023-02-09T04:38:50.397Z,22.70
2023-02-09T04:41:17.155Z,24.87
2023-02-09T04:43:45.404Z,20.47
2023-02-09T04:46:17.016Z,22.50
2023-02-09T04:48:44.405Z,22.67
2023-02-09T04:51:11.962Z,20.87
2023-02-09T04:53:38.776Z,22.50
2023-02-09T04:56:06.028Z,21.00
2023-02-09T04:58:51.368Z,20.83
2023-02-09T05:01:24.172Z,21.57
2023-02-09T05:03:52.078Z,20.70
2023-02-09T05:06:19.104Z,20.30
2023-02-09T05:08:46.301Z,20.27
2023-02-09T05:11:13.323Z,22.83
2023-02-09T05:13:40.180Z,21.23
2023-02-09T05:16:08.478Z,20.43
2023-02-09T05:18:35.790Z,22.70
2023-02-09T05:21:03.119Z,23.13
2023-02-09T05:23:30.034Z,19.83
2023-02-09T05:25:56.890Z,21.33
2023-02-09T05:28:25.280Z,22.67
2023-02-09T05:30:53.824Z,23.90
2023-02-09T05:33:25.078Z,24.33
2023-02-09T05:35:53.708Z,25.17
2023-02-09T05:38:20.458Z,24.23
2023-02-09T05:40:47.596Z,24.50
2023-02-09T05:43:14.579Z,22.60
2023-02-09T05:45:41.466Z,24.30
2023-02-09T05:48:08.365Z,24.00
2023-02-09T05:50:36.068Z,23.70
2023-02-09T05:53:03.078Z,23.13
2023-02-09T05:55:29.950Z,24.80
2023-02-09T05:57:56.862Z,24.33
2023-02-09T06:00:25.138Z,23.90
2023-02-09T06:02:52.016Z,27.50
2023-02-09T06:05:20.900Z,24.60
2023-02-09T06:07:48.500Z,26.57
2023-02-09T06:10:16.212Z,25.97
2023-02-09T06:12:42.942Z,24.90
2023-02-09T06:15:10.607Z,26.40
2023-02-09T06:17:37.663Z,24.80
2023-02-09T06:20:04.921Z,24.53
2023-02-09T06:22:31.817Z,24.83
2023-02-09T06:24:58.674Z,25.80
2023-02-09T06:27:25.693Z,25.00
2023-02-09T06:29:53.042Z,25.90
2023-02-09T06:32:19.862Z,27.43
2023-02-09T06:34:46.618Z,32.37
2023-02-09T06:37:13.339Z,25.73
2023-02-09T06:39:40.104Z,27.07
2023-02-09T06:42:06.865Z,28.13
2023-02-09T06:44:33.675Z,26.73
2023-02-09T06:47:00.405Z,27.07
2023-02-09T06:49:27.125Z,26.20
2023-02-09T06:51:54.058Z,28.37
2023-02-09T06:54:21.826Z,27.30
2023-02-09T06:56:48.905Z,27.50
2023-02-09T06:59:15.904Z,30.20
2023-02-09T07:01:42.881Z,25.13
2023-02-09T07:04:15.102Z,26.07
2023-02-09T07:06:41.906Z,26.00
2023-02-09T07:09:08.841Z,29.87
2023-02-09T07:11:35.860Z,27.83
2023-02-09T07:14:02.772Z,26.53
2023-02-09T07:16:29.613Z,25.87
2023-02-09T07:18:56.522Z,28.10
2023-02-09T07:21:23.812Z,24.60
2023-02-09T07:23:50.735Z,26.60
2023-02-09T07:26:18.373Z,28.37
2023-02-09T07:28:45.447Z,26.20
2023-02-09T07:31:14.115Z,27.50
2023-02-09T07:33:41.093Z,29.20
2023-02-09T07:36:10.577Z,26.37
2023-02-09T07:38:37.987Z,30.20
2023-02-09T07:41:06.607Z,29.70
2023-02-09T07:43:33.494Z,28.43
2023-02-09T07:46:05.939Z,29.10
2023-02-09T07:48:33.356Z,29.43
2023-02-09T07:51:00.726Z,31.50
2023-02-09T07:53:28.413Z,30.53
2023-02-09T07:55:55.281Z,28.50
2023-02-09T07:58:22.966Z,31.60
2023-02-09T08:00:50.987Z,31.20
2023-02-09T08:03:20.348Z,32.13
2023-02-09T08:06:04.308Z,32.27
2023-02-09T08:08:31.177Z,31.93
2023-02-09T08:10:59.479Z,31.63
2023-02-09T08:13:30.566Z,33.70
2023-02-09T08:16:02.887Z,32.43
2023-02-09T08:18:34.320Z,34.57
2023-02-09T08:21:01.199Z,34.83
2023-02-09T08:23:32.915Z,31.43
2023-02-09T08:26:02.871Z,34.30
2023-02-09T08:28:43.259Z,34.37
2023-02-09T08:31:18.961Z,33.67
2023-02-09T08:33:48.038Z,32.97
2023-02-09T08:36:16.179Z,33.03
2023-02-09T08:38:44.254Z,33.03
2023-02-09T08:41:13.998Z,34.47
2023-02-09T08:43:40.960Z,36.23
2023-02-09T08:46:13.224Z,36.07
2023-02-09T08:48:42.583Z,33.10
2023-02-09T08:51:11.186Z,34.50
2023-02-09T08:53:38.792Z,35.10
2023-02-09T08:56:06.081Z,33.87
2023-02-09T08:58:36.595Z,34.13
2023-02-09T09:01:03.623Z,36.77
2023-02-09T09:03:33.270Z,31.93
2023-02-09T09:06:05.720Z,34.70
2023-02-09T09:08:34.439Z,34.13
2023-02-09T09:11:01.396Z,32.63
2023-02-09T09:13:28.815Z,34.87
2023-02-09T09:15:56.023Z,33.13
2023-02-09T09:18:24.348Z,33.47
2023-02-09T09:20:52.313Z,34.77
2023-02-09T09:23:21.158Z,35.60
2023-02-09T09:25:48.472Z,33.63
2023-02-09T09:28:16.002Z,34.00
2023-02-09T09:30:42.907Z,36.20
2023-02-09T09:33:09.719Z,34.50
2023-02-09T09:35:36.537Z,34.27
2023-02-09T09:38:03.204Z,34.87
2023-02-09T09:40:33.013Z,34.40
2023-02-09T09:43:04.471Z,33.27
2023-02-09T09:45:35.291Z,32.93
2023-02-09T09:48:02.474Z,34.07
2023-02-09T09:50:39.216Z,32.97
2023-02-09T09:53:33.391Z,34.73
2023-02-09T09:56:04.135Z,33.00
2023-02-09T09:58:33.385Z,35.70
2023-02-09T10:01:00.318Z,34.03
2023-02-09T10:03:27.162Z,35.27
2023-02-09T10:05:58.958Z,35.57
2023-02-09T10:08:33.511Z,34.77
2023-02-09T10:11:07.414Z,34.27
2023-02-09T10:13:54.890Z,34.60
2023-02-09T10:16:26.604Z,34.40
2023-02-09T10:19:02.125Z,34.80
2023-02-09T10:21:31.231Z,33.70
2023-02-09T10:24:00.784Z,37.60
2023-02-09T10:26:36.653Z,32.60
2023-02-09T10:29:13.458Z,35.83
2023-02-09T10:31:47.455Z,33.97
2023-02-09T10:34:23.796Z,34.03
2023-02-09T10:36:55.789Z,34.37
2023-02-09T10:39:22.549Z,31.97
2023-02-09T10:41:52.482Z,33.57
2023-02-09T10:44:30.133Z,32.43
2023-02-09T10:47:23.430Z,32.57
2023-02-09T10:49:56.018Z,30.80
2023-02-09T10:52:25.018Z,32.37
2023-02-09T10:54:57.578Z,32.77
2023-02-09T10:57:38.971Z,33.33
2023-02-09T11:00:17.757Z,29.20
2023-02-09T11:02:52.105Z,30.30
2023-02-09T11:05:21.849Z,31.00
2023-02-09T11:08:19.394Z,31.03
2023-02-09T11:11:03.370Z,30.87
2023-02-09T11:13:32.346Z,30.47
2023-02-09T11:16:25.972Z,29.90
2023-02-09T11:19:18.342Z,27.93
2023-02-09T11:22:03.703Z,28.13
2023-02-09T11:24:45.605Z,27.67
2023-02-09T11:27:15.189Z,27.97
2023-02-09T11:29:59.328Z,29.03
2023-02-09T11:32:45.680Z,27.67
2023-02-09T11:35:18.743Z,30.30
2023-02-09T11:38:03.265Z,28.73
2023-02-09T11:40:53.309Z,29.57
2023-02-09T11:43:39.380Z,28.07
2023-02-09T11:46:16.957Z,29.00
2023-02-09T11:48:58.055Z,29.07
2023-02-09T11:51:26.731Z,27.23
2023-02-09T11:54:18.858Z,28.27
2023-02-09T11:56:49.962Z,28.70
2023-02-09T11:59:39.203Z,27.63
2023-02-09T12:02:27.581Z,26.57
2023-02-09T12:05:00.475Z,25.57
2023-02-09T12:07:49.168Z,24.40
2023-02-09T12:10:31.000Z,26.43
2023-02-09T12:13:01.839Z,24.73
2023-02-09T12:16:00.349Z,25.37
2023-02-09T12:18:33.242Z,25.50
2023-02-09T12:21:02.374Z,26.67
2023-02-09T12:23:45.257Z,24.63
2023-02-09T12:26:11.910Z,26.00
2023-02-09T12:28:43.595Z,27.57
2023-02-09T12:31:18.453Z,25.73
2023-02-09T12:33:45.251Z,27.17
2023-02-09T12:36:16.037Z,27.57
2023-02-09T12:38:54.671Z,26.57
2023-02-09T12:41:40.914Z,26.47
2023-02-09T12:44:31.255Z,28.70
2023-02-09T12:46:58.142Z,27.13
2023-02-09T12:49:27.519Z,28.70
2023-02-09T12:52:07.635Z,26.10
2023-02-09T12:54:52.150Z,27.67
2023-02-09T12:57:19.311Z,25.23
2023-02-09T13:00:00.855Z,27.10
2023-02-09T13:02:35.941Z,28.53
2023-02-09T13:05:11.731Z,28.60
2023-02-09T13:08:05.408Z,24.73
2023-02-09T13:10:41.198Z,29.37
2023-02-09T13:13:10.385Z,26.33
2023-02-09T13:16:09.066Z,29.43
2023-02-09T13:19:05.228Z,27.10
2023-02-09T13:21:43.797Z,26.50
2023-02-09T13:24:19.720Z,27.50
2023-02-09T13:26:58.211Z,26.97
2023-02-09T13:29:32.331Z,29.17
2023-02-09T13:32:15.710Z,27.67
2023-02-09T13:34:46.323Z,27.50
2023-02-09T13:37:29.476Z,25.70
2023-02-09T13:40:02.945Z,26.50
2023-02-09T13:42:35.227Z,27.13
2023-02-09T13:45:02.132Z,27.23
2023-02-09T13:47:29.182Z,25.90
2023-02-09T13:50:16.997Z,27.30
2023-02-09T13:52:43.850Z,26.03
2023-02-09T13:55:12.921Z,28.97
2023-02-09T13:57:42.628Z,27.60
2023-02-09T14:00:24.850Z,28.60
2023-02-09T14:02:56.977Z,28.30
2023-02-09T14:05:35.327Z,28.73
2023-02-09T14:08:02.957Z,27.90
2023-02-09T14:10:32.892Z,28.43
2023-02-09T14:13:29.146Z,27.97
2023-02-09T14:16:09.765Z,26.90
2023-02-09T14:18:50.395Z,29.43
2023-02-09T14:21:22.305Z,27.07
2023-02-09T14:24:07.356Z,28.40
2023-02-09T14:26:47.075Z,30.70
2023-02-09T14:29:31.977Z,29.93
2023-02-09T14:32:06.956Z,29.70
2023-02-09T14:34:40.350Z,29.20
2023-02-09T14:37:13.206Z,29.20
2023-02-09T14:40:01.392Z,30.30
2023-02-09T14:42:30.151Z,31.20
2023-02-09T14:44:56.882Z,31.80
2023-02-09T14:47:29.281Z,30.03
2023-02-09T14:49:58.243Z,29.00
2023-02-09T14:52:28.999Z,29.43
2023-02-09T14:55:00.672Z,30.77
2023-02-09T14:57:29.497Z,28.47
2023-02-09T14:59:56.524Z,28.23
2023-02-09T15:02:27.113Z,30.07
2023-02-09T15:04:54.910Z,31.97
2023-02-09T15:07:37.953Z,29.43
2023-02-09T15:10:07.941Z,28.83
2023-02-09T15:12:34.715Z,29.57
2023-02-09T15:15:02.329Z,31.87
2023-02-09T15:17:30.825Z,30.50
2023-02-09T15:19:58.616Z,33.20
2023-02-09T15:22:26.092Z,30.80
2023-02-09T15:24:54.576Z,31.87
2023-02-09T15:27:29.451Z,31.10
2023-02-09T15:29:59.081Z,29.70
2023-02-09T15:32:28.079Z,28.70
2023-02-09T15:34:54.973Z,31.20
2023-02-09T15:37:28.010Z,29.57
2023-02-09T15:40:01.620Z,29.53
2023-02-09T15:42:47.469Z,31.20
2023-02-09T15:45:38.276Z,28.93
2023-02-09T15:48:06.120Z,31.50
2023-02-09T15:50:34.481Z,30.00
2023-02-09T15:53:05.399Z,30.37
2023-02-09T15:55:32.515Z,30.53
2023-02-09T15:57:59.615Z,29.63
2023-02-09T16:00:29.321Z,30.10
2023-02-09T16:02:59.034Z,29.40
2023-02-09T16:05:28.306Z,27.70
2023-02-09T16:07:56.193Z,27.30
2023-02-09T16:10:29.069Z,27.90
2023-02-09T16:12:57.013Z,28.43
2023-02-09T16:15:25.658Z,27.20
2023-02-09T16:17:52.514Z,28.23
2023-02-09T16:20:20.417Z,28.17
2023-02-09T16:22:49.061Z,28.60
2023-02-09T16:25:22.980Z,26.30
2023-02-09T16:27:52.256Z,26.23
2023-02-09T16:30:26.606Z,29.30
2023-02-09T16:32:53.523Z,29.27
2023-02-09T16:35:22.348Z,29.63
2023-02-09T16:37:51.715Z,28.93
2023-02-09T16:40:30.031Z,28.83
2023-02-09T16:43:01.342Z,29.70
2023-02-09T16:45:30.493Z,29.63
2023-02-09T16:47:59.376Z,27.53
2023-02-09T16:50:35.951Z,26.70
2023-02-09T16:53:13.292Z,30.43
2023-02-09T16:55:43.019Z,28.97
2023-02-09T16:58:14.043Z,30.33
2023-02-09T17:00:43.662Z,29.03
2023-02-09T17:03:32.767Z,31.97
2023-02-09T17:06:01.572Z,32.10
2023-02-09T17:08:35.374Z,29.70
2023-02-09T17:11:03.890Z,27.70
2023-02-09T17:13:31.138Z,29.83
2023-02-09T17:16:01.905Z,30.40
2023-02-09T17:18:40.350Z,30.40
2023-02-09T17:21:14.434Z,30.07
2023-02-09T17:23:42.689Z,37.50
2023-02-09T17:26:17.820Z,30.40
2023-02-09T17:28:44.553Z,33.80
2023-02-09T17:31:22.297Z,35.50
2023-02-09T17:33:52.694Z,33.03
2023-02-09T17:36:28.867Z,32.13
2023-02-09T17:39:00.381Z,32.30
2023-02-09T17:41:40.843Z,34.73
2023-02-09T17:44:34.884Z,34.27
2023-02-09T17:47:07.354Z,34.27
2023-02-09T17:49:34.957Z,35.90
2023-02-09T17:52:01.879Z,34.70
2023-02-09T17:54:28.634Z,34.40
2023-02-09T17:56:55.358Z,35.17
2023-02-09T17:59:22.127Z,37.17
2023-02-09T18:01:55.150Z,34.60
2023-02-09T18:04:28.750Z,37.87
2023-02-09T18:06:57.768Z,38.07
2023-02-09T18:09:24.919Z,35.83
2023-02-09T18:11:51.974Z,37.30
2023-02-09T18:14:20.421Z,39.87
2023-02-09T18:16:47.860Z,36.27
2023-02-09T18:19:16.063Z,55.17
2023-02-09T18:21:55.151Z,113.23
2023-02-09T18:24:23.438Z,80.53
2023-02-09T18:26:53.544Z,68.47
2023-02-09T18:29:23.593Z,53.67
2023-02-09T18:31:51.180Z,44.40
2023-02-09T18:34:18.306Z,45.33
2023-02-09T18:36:47.365Z,44.33
2023-02-09T18:39:17.404Z,49.57
2023-02-09T18:41:46.313Z,45.53
2023-02-09T18:44:13.252Z,49.40
2023-02-09T18:46:42.668Z,47.93
2023-02-09T18:49:12.294Z,41.80
2023-02-09T18:51:39.103Z,46.20
2023-02-09T18:54:05.954Z,40.47
2023-02-09T18:56:32.873Z,41.47
2023-02-09T18:58:59.680Z,40.07
2023-02-09T19:01:26.548Z,40.10
2023-02-09T19:03:54.296Z,49.47
2023-02-09T19:06:22.158Z,60.00
2023-02-09T19:08:50.388Z,50.27
2023-02-09T19:11:20.080Z,50.33
2023-02-09T19:14:05.705Z,52.80
2023-02-09T19:16:32.933Z,54.97
2023-02-09T19:19:00.789Z,57.27
2023-02-09T19:21:28.530Z,54.00
2023-02-09T19:23:55.572Z,47.60
2023-02-09T19:26:22.568Z,47.33
2023-02-09T19:28:49.866Z,46.83
2023-02-09T19:31:17.503Z,49.53
2023-02-09T19:33:44.562Z,47.63
2023-02-09T19:36:11.497Z,44.87
2023-02-09T19:38:38.397Z,48.23
2023-02-09T19:41:12.405Z,42.63
2023-02-09T19:43:42.125Z,43.80
2023-02-09T19:46:10.328Z,46.57
2023-02-09T19:48:40.125Z,42.23
2023-02-09T19:51:08.237Z,46.27
2023-02-09T19:53:35.141Z,44.20
2023-02-09T19:56:05.191Z,43.40
2023-02-09T19:58:32.180Z,43.43
2023-02-09T20:00:59.018Z,42.67
2023-02-09T20:03:25.923Z,43.93
2023-02-09T20:05:52.826Z,43.93
2023-02-09T20:08:20.397Z,43.60
2023-02-09T20:10:48.012Z,43.20
2023-02-09T20:13:15.693Z,40.97
2023-02-09T20:15:43.721Z,41.83
2023-02-09T20:18:12.124Z,41.00
2023-02-09T20:20:41.440Z,40.63
2023-02-09T20:23:08.764Z,44.47
2023-02-09T20:25:43.052Z,42.00
2023-02-09T20:28:13.583Z,40.90
2023-02-09T20:30:42.197Z,41.90
2023-02-09T20:33:10.295Z,40.43
2023-02-09T20:35:44.612Z,39.27
2023-02-09T20:38:12.748Z,42.53
2023-02-09T20:40:43.536Z,42.10
2023-02-09T20:43:30.927Z,38.73
2023-02-09T20:46:16.180Z,43.57
2023-02-09T20:48:43.054Z,42.33
2023-02-09T20:51:09.878Z,41.17
2023-02-09T20:53:36.825Z,42.73
2023-02-09T20:56:03.804Z,41.80
2023-02-09T20:58:35.569Z,44.03
2023-02-09T21:01:05.769Z,42.40
2023-02-09T21:03:32.822Z,46.77
2023-02-09T21:06:02.076Z,41.57
2023-02-09T21:08:28.867Z,44.07
2023-02-09T21:10:57.678Z,43.33
2023-02-09T21:13:25.957Z,42.10
2023-02-09T21:15:52.826Z,42.90
2023-02-09T21:18:21.464Z,42.60
2023-02-09T21:20:49.198Z,45.40
2023-02-09T21:23:17.173Z,44.90
2023-02-09T21:25:44.339Z,42.23
2023-02-09T21:28:12.165Z,44.17
2023-02-09T21:30:44.082Z,41.47
2023-02-09T21:33:10.992Z,45.53
2023-02-09T21:35:41.168Z,56.47
2023-02-09T21:38:07.971Z,44.60
2023-02-09T21:40:34.790Z,51.07
2023-02-09T21:43:01.634Z,48.97
2023-02-09T21:45:28.548Z,46.50
2023-02-09T21:47:55.561Z,45.47
2023-02-09T21:50:22.404Z,45.93
2023-02-09T21:52:49.856Z,43.37
2023-02-09T21:55:17.476Z,44.03
2023-02-09T21:57:44.263Z,43.47
2023-02-09T22:00:12.426Z,46.63
2023-02-09T22:02:39.518Z,46.77
2023-02-09T22:05:07.135Z,43.20
2023-02-09T22:07:35.673Z,49.63
2023-02-09T22:10:03.125Z,44.10
2023-02-09T22:12:29.985Z,46.63
2023-02-09T22:14:56.806Z,44.03
2023-02-09T22:17:23.551Z,45.03
2023-02-09T22:19:50.414Z,43.57
2023-02-09T22:22:17.271Z,43.33
2023-02-09T22:24:44.048Z,44.97
2023-02-09T22:27:10.833Z,46.97
2023-02-09T22:29:37.727Z,46.70
2023-02-09T22:32:04.624Z,45.50
2023-02-09T22:34:31.362Z,46.90
2023-02-09T22:36:58.171Z,48.23
2023-02-09T22:39:24.986Z,42.90
2023-02-09T22:41:54.299Z,44.53
2023-02-09T22:44:21.108Z,45.73
2023-02-09T22:46:47.945Z,45.43
2023-02-09T22:49:18.147Z,47.13
2023-02-09T22:51:46.423Z,42.03
2023-02-09T22:54:15.059Z,46.70
2023-02-09T22:56:42.364Z,42.80
2023-02-09T22:59:11.530Z,44.50
2023-02-09T23:01:38.799Z,43.30
2023-02-09T23:04:05.729Z,43.83
2023-02-09T23:06:32.541Z,46.57
2023-02-09T23:09:01.652Z,46.73
2023-02-09T23:11:30.419Z,48.27
2023-02-09T23:14:11.917Z,47.27
2023-02-09T23:16:40.777Z,47.63
2023-02-09T23:19:11.027Z,45.07
2023-02-09T23:21:40.071Z,46.00
2023-02-09T23:24:07.625Z,51.37
2023-02-09T23:26:35.067Z,51.03
2023-02-09T23:29:05.446Z,49.53
2023-02-09T23:31:32.782Z,47.80
2023-02-09T23:33:59.632Z,50.13
2023-02-09T23:36:29.053Z,51.63
2023-02-09T23:38:58.094Z,48.17
2023-02-09T23:41:26.144Z,47.10
2023-02-09T23:43:53.670Z,48.03
2023-02-09T23:46:23.832Z,47.00
2023-02-09T23:48:53.264Z,46.37
2023-02-09T23:51:28.414Z,48.33
2023-02-09T23:53:56.725Z,45.30
2023-02-09T23:56:24.312Z,46.20
2023-02-09T23:58:53.336Z,45.90
